This is the latest recevied weather packets stored in our database for station/object HJ3DAG-13. If no packets are shown the sender has not sent any weather packets the latest 10 day(s).
| Time | Temp. | Humidity | Pressure | Rain* | Wind** | Luminosity | Snow |
|---|---|---|---|---|---|---|---|
| 1778023250 | 16.11° C | 72% | 1015 hPa | 0.25 mm | - | - | - |
| 1778022650 | 16.11° C | 72% | 1015 hPa | 0.25 mm | - | - | - |
| 1778021450 | 20° C | 60% | 1015 hPa | 0.51 mm | - | - | - |
| 1778021072 | 20° C | 60% | 1014 hPa | 0.51 mm | - | - | - |
| 1778020850 | 16.67° C | 72% | 1014 hPa | 0.51 mm | - | - | - |
| 1778020250 | 17.22° C | 72% | 1014 hPa | 0.51 mm | - | - | - |
| 1778019872 | 17.78° C | 72% | 1013 hPa | 0.51 mm | - | - | - |
| 1778019650 | 17.78° C | 72% | 1013 hPa | 0.51 mm | - | - | - |
| 1778019051 | 17.78° C | 73% | 1013 hPa | 0.51 mm | - | - | - |
| 1778018450 | 17.78° C | 74% | 1013 hPa | 0 mm | - | - | - |
| 1778018072 | 17.78° C | 74% | 1013 hPa | 0.51 mm | - | - | - |
| 1778017850 | 17.78° C | 73% | 1013 hPa | 0.51 mm | - | - | - |
| 1778017472 | 17.78° C | 73% | 1013 hPa | 0.51 mm | - | - | - |
| 1778017250 | 17.78° C | 73% | 1013 hPa | 0.51 mm | - | - | - |
| 1778016651 | 17.78° C | 72% | 1013 hPa | 0.51 mm | - | - | - |
| 1778016272 | 17.78° C | 72% | 1012 hPa | 0.51 mm | - | - | - |
| 1778016050 | 17.22° C | 72% | 1012 hPa | 0.51 mm | - | - | - |
| 1778015672 | 17.22° C | 72% | 1012 hPa | 0.51 mm | - | - | - |
| 1778015450 | 17.22° C | 71% | 1012 hPa | 0.51 mm | - | - | - |
| 1778015073 | 17.22° C | 69% | 1012 hPa | 0 mm | - | - | - |
| 1778014850 | 17.22° C | 69% | 1012 hPa | 0 mm | - | - | - |
| 1778014473 | 17.22° C | 69% | 1012 hPa | 0.25 mm | - | - | - |
| 1778014251 | 17.22° C | 69% | 1012 hPa | 0.25 mm | - | - | - |
| 1778013872 | 17.22° C | 68% | 1012 hPa | 0.25 mm | - | - | - |
| 1778013650 | 17.22° C | 68% | 1012 hPa | 0.25 mm | - | - | - |
* Rain latest hour (hover to see other rain measurements)
** Current wind speed in m/s (hover to see current wind gust speed)